Time;durP1;ratioP1;P1;durP2;ratioP2;P2;SDS_P1;SDS_P2;PMS_P1;PMS_P2;Temp;Humidity;BMP_temperature;BMP_pressure;BME280_temperature;BME280_humidity;BME280_pressure;Samples;Min_cycle;Max_cycle;Signal;HPM_P1;HPM_P2
2021/05/21 10:37:27;;;;;;;3.45;0.60;;;28.20;37.70;;;;;;3875340;37;20144;-42
2021/05/21 10:40:24;;;;;;;3.12;0.60;;;31.70;32.10;;;;;;4432539;32;20076;-42
2021/05/21 10:42:51;;;;;;;2.35;0.68;;;32.10;31.10;;;;;;4431820;32;20132;-42
2021/05/21 10:45:23;;;;;;;1.90;0.50;;;32.40;30.40;;;;;;4406249;32;20133;-42
2021/05/21 10:48:02;;;;;;;3.95;1.20;;;32.60;30.10;;;;;;4402219;32;20061;-41
2021/05/21 10:50:36;;;;;;;2.83;0.50;;;32.90;29.80;;;;;;4415722;32;20058;-42
2021/05/21 10:53:09;;;;;;;2.42;0.70;;;33.10;29.50;;;;;;4401729;32;20601;-43
2021/05/21 10:55:54;;;;;;;6.65;0.77;;;33.30;29.30;;;;;;4415653;32;20103;-43
2021/05/21 10:58:22;;;;;;;3.03;0.65;;;33.50;29.00;;;;;;4416077;32;20061;-41
2021/05/21 11:01:12;;;;;;;3.42;0.60;;;33.60;29.40;;;;;;4415805;32;20065;-45
2021/05/21 11:04:01;;;;;;;1.02;0.50;;;33.80;29.60;;;;;;4415663;32;20061;-44
2021/05/21 11:06:53;;;;;;;3.70;0.43;;;34.20;28.80;;;;;;4415329;32;20476;-44
2021/05/21 11:09:25;;;;;;;3.95;0.50;;;34.30;28.70;;;;;;4401589;32;20524;-44
2021/05/21 11:12:07;;;;;;;2.22;0.50;;;34.60;28.70;;;;;;4415871;32;20054;-43
2021/05/21 11:14:44;;;;;;;2.92;0.50;;;34.80;28.40;;;;;;4415577;32;20517;-44
2021/05/21 11:17:27;;;;;;;3.67;0.70;;;35.00;27.80;;;;;;4402114;32;20167;-43
2021/05/21 11:19:58;;;;;;;1.50;0.40;;;35.00;27.80;;;;;;4415719;32;20512;-41
2021/05/21 11:22:27;;;;;;;4.95;0.40;;;35.00;27.50;;;;;;4415380;32;20471;-44
2021/05/21 11:25:06;;;;;;;14.93;0.80;;;35.00;27.80;;;;;;4415773;32;20061;-43
2021/05/21 11:27:34;;;;;;;0.70;0.40;;;35.10;28.10;;;;;;4409288;32;20469;-41
2021/05/21 11:30:09;;;;;;;2.87;0.50;;;35.00;27.50;;;;;;4400571;32;20054;-43
2021/05/21 11:32:37;;;;;;;2.80;0.40;;;35.00;27.30;;;;;;4400123;32;20460;-42
2021/05/21 11:35:11;;;;;;;2.80;0.50;;;34.90;27.10;;;;;;4400118;32;20129;-42
2021/05/21 11:37:39;;;;;;;4.07;0.40;;;34.70;27.20;;;;;;4391752;32;20069;-42
2021/05/21 11:40:07;;;;;;;1.37;0.50;;;34.60;27.60;;;;;;4376022;32;20174;-43
2021/05/21 11:42:35;;;;;;;0.98;0.55;;;34.60;27.40;;;;;;4389882;32;20062;-43
2021/05/21 11:45:03;;;;;;;2.12;0.77;;;34.50;27.30;;;;;;4389818;32;20061;-42
2021/05/21 11:47:36;;;;;;;3.22;0.62;;;34.40;27.50;;;;;;4389819;32;20139;-43
2021/05/21 11:50:05;;;;;;;5.70;0.40;;;34.50;27.30;;;;;;4389595;32;20069;-42
2021/05/21 11:52:32;;;;;;;3.55;0.30;;;34.50;27.20;;;;;;4389739;32;20514;-42
2021/05/21 11:54:58;;;;;;;3.45;0.70;;;34.60;27.20;;;;;;4389555;32;20169;-42
2021/05/21 11:57:25;;;;;;;2.15;0.45;;;34.60;27.30;;;;;;4389167;32;20054;-43
2021/05/21 11:59:56;;;;;;;7.07;0.90;;;34.80;27.10;;;;;;4375783;32;20145;-42
2021/05/21 12:02:22;;;;;;;3.28;0.40;;;34.90;27.10;;;;;;4389615;32;20053;-42
2021/05/21 12:04:50;;;;;;;1.48;0.47;;;35.10;26.80;;;;;;4375956;32;20544;-42
2021/05/21 12:07:26;;;;;;;2.35;0.80;;;35.20;26.10;;;;;;4375794;32;20631;-42
2021/05/21 12:10:02;;;;;;;3.00;0.60;;;35.40;26.10;;;;;;4389978;32;20155;-43
2021/05/21 12:12:30;;;;;;;4.35;0.50;;;35.40;26.10;;;;;;4375677;32;20563;-41
2021/05/21 12:15:17;;;;;;;3.80;0.62;;;35.50;26.10;;;;;;4389654;32;20092;-43
2021/05/21 12:17:52;;;;;;;3.25;0.55;;;35.60;26.20;;;;;;4388939;32;20487;-42
2021/05/21 12:20:22;;;;;;;2.05;0.40;;;35.60;26.10;;;;;;4377958;32;20084;-43
2021/05/21 12:23:06;;;;;;;2.15;0.40;;;35.60;25.90;;;;;;4404623;32;20054;-42
2021/05/21 12:25:34;;;;;;;6.80;0.55;;;35.60;26.00;;;;;;4404103;32;20069;-45
2021/05/21 12:28:01;;;;;;;0.62;0.35;;;35.50;25.90;;;;;;4404422;32;20154;-41
2021/05/21 12:30:28;;;;;;;1.00;0.30;;;35.50;25.80;;;;;;4378005;32;20174;-43
2021/05/21 12:32:55;;;;;;;0.90;0.40;;;35.40;25.80;;;;;;4404727;32;20170;-42
2021/05/21 12:35:41;;;;;;;1.50;0.35;;;35.40;25.60;;;;;;4356127;32;20174;-43
2021/05/21 12:38:09;;;;;;;1.95;0.40;;;35.50;25.90;;;;;;4356590;32;20488;-44
2021/05/21 12:40:48;;;;;;;1.48;0.32;;;35.60;25.80;;;;;;4356934;32;20059;-43
2021/05/21 12:43:16;;;;;;;2.45;0.37;;;35.70;25.50;;;;;;4344499;32;20078;-43
2021/05/21 12:46:04;;;;;;;1.95;0.37;;;35.80;25.60;;;;;;4332031;32;20071;-43
2021/05/21 12:48:46;;;;;;;2.65;0.50;;;35.90;25.50;;;;;;4355822;32;20093;-44
2021/05/21 12:51:23;;;;;;;3.00;0.50;;;35.90;25.40;;;;;;4356320;32;20098;-43
2021/05/21 12:53:50;;;;;;;2.28;0.40;;;35.90;25.50;;;;;;4356493;32;20066;-43
2021/05/21 12:56:38;;;;;;;0.62;0.30;;;35.80;25.40;;;;;;4356102;32;20063;-43
2021/05/21 12:59:11;;;;;;;3.87;0.70;;;35.60;25.40;;;;;;4356222;32;20185;-42
2021/05/21 13:01:39;;;;;;;2.58;0.50;;;35.50;25.60;;;;;;4355817;32;20154;-42
2021/05/21 13:04:16;;;;;;;2.45;0.50;;;35.30;25.60;;;;;;4355884;32;20070;-43
2021/05/21 13:06:43;;;;;;;10.32;0.60;;;35.20;25.80;;;;;;4386057;32;20081;-42
2021/05/21 13:09:11;;;;;;;2.17;0.43;;;35.20;25.90;;;;;;4403946;32;20058;-44
2021/05/21 13:12:00;;;;;;;1.33;0.30;;;35.20;26.00;;;;;;4403823;32;20081;-42
2021/05/21 13:14:31;;;;;;;1.62;0.40;;;35.20;25.70;;;;;;4403251;32;20525;-42
2021/05/21 13:17:05;;;;;;;1.87;0.30;;;35.30;25.40;;;;;;4403463;32;20480;-43
2021/05/21 13:19:34;;;;;;;;;;;35.40;25.40;;;;;;4404065;32;20496;-43
2021/05/21 13:22:18;;;;;;;1.17;0.52;;;35.50;25.60;;;;;;4377462;32;19972;-42
2021/05/21 13:24:48;;;;;;;0.90;0.45;;;35.60;25.50;;;;;;4374478;32;20062;-44
2021/05/21 13:27:22;;;;;;;0.68;0.40;;;35.50;25.20;;;;;;4388262;32;20178;-43
2021/05/21 13:29:49;;;;;;;;;;;35.40;25.20;;;;;;4375451;32;20105;-42
2021/05/21 13:32:16;;;;;;;3.35;0.50;;;35.40;25.60;;;;;;4388171;32;20469;-41
2021/05/21 13:34:42;;;;;;;2.65;0.30;;;35.30;25.40;;;;;;4388297;32;20086;-41
2021/05/21 13:37:09;;;;;;;3.25;0.70;;;35.20;25.20;;;;;;4388295;32;20064;-42
2021/05/21 13:39:35;;;;;;;1.17;0.40;;;35.10;25.20;;;;;;4388184;32;20431;-42
2021/05/21 13:42:02;;;;;;;2.72;0.40;;;35.00;25.20;;;;;;4388406;32;20524;-42
2021/05/21 13:44:29;;;;;;;2.58;0.40;;;35.00;25.10;;;;;;4388230;32;20151;-42
2021/05/21 13:46:55;;;;;;;6.90;0.50;;;35.00;25.00;;;;;;4388029;32;20250;-42
2021/05/21 13:49:25;;;;;;;9.45;0.70;;;35.10;24.90;;;;;;4374410;32;20077;-43
2021/05/21 13:51:53;;;;;;;3.00;0.70;;;35.20;25.10;;;;;;4374275;32;20058;-42
2021/05/21 13:54:20;;;;;;;2.87;0.73;;;35.20;24.90;;;;;;4373916;32;20516;-43
2021/05/21 13:56:47;;;;;;;3.78;0.55;;;35.30;25.00;;;;;;4388122;32;20492;-42
2021/05/21 13:59:14;;;;;;;2.60;0.57;;;35.30;24.80;;;;;;4373874;32;20065;-43
2021/05/21 14:01:40;;;;;;;4.32;0.50;;;35.40;25.30;;;;;;4388131;32;20064;-42
2021/05/21 14:04:10;;;;;;;1.50;0.50;;;35.60;24.70;;;;;;4387967;32;20075;-42
2021/05/21 14:06:36;;;;;;;4.32;0.68;;;35.60;24.50;;;;;;4387810;32;20081;-42
2021/05/21 14:09:03;;;;;;;3.72;0.60;;;35.70;24.40;;;;;;4387838;32;20065;-42
2021/05/21 14:11:30;;;;;;;3.72;0.40;;;35.80;24.30;;;;;;4387603;32;20066;-42
2021/05/21 14:13:57;;;;;;;10.73;1.08;;;35.90;24.10;;;;;;4387867;32;20082;-42
2021/05/21 14:16:24;;;;;;;5.00;0.50;;;35.90;24.10;;;;;;4387711;32;20632;-42
2021/05/21 14:18:50;;;;;;;1.87;0.50;;;35.90;24.20;;;;;;4387763;32;20073;-42
2021/05/21 14:21:17;;;;;;;4.32;0.50;;;35.90;24.20;;;;;;4395743;32;20489;-42
2021/05/21 14:23:46;;;;;;;1.77;0.40;;;35.90;24.10;;;;;;4403004;32;20166;-43
2021/05/21 14:26:14;;;;;;;5.20;0.60;;;35.90;24.00;;;;;;4388494;32;20069;-44
2021/05/21 14:28:41;;;;;;;0.73;0.40;;;36.10;24.00;;;;;;4402262;32;20105;-42
2021/05/21 14:31:08;;;;;;;0.80;0.40;;;36.30;24.10;;;;;;4402576;32;20626;-42
2021/05/21 14:33:37;;;;;;;0.82;0.40;;;36.40;24.00;;;;;;4402747;32;20508;-43
2021/05/21 14:36:05;;;;;;;2.05;0.40;;;36.50;23.80;;;;;;4402233;32;20045;-43
2021/05/21 14:38:32;;;;;;;1.02;0.40;;;36.70;23.80;;;;;;4402558;32;20074;-43
2021/05/21 14:40:59;;;;;;;0.70;0.30;;;36.80;23.80;;;;;;4402954;32;20126;-42
2021/05/21 14:43:25;;;;;;;4.82;0.60;;;36.90;23.70;;;;;;4402748;32;20135;-42
2021/05/21 14:45:52;;;;;;;3.90;0.60;;;36.90;23.70;;;;;;4402548;32;20103;-42
2021/05/21 14:48:20;;;;;;;5.00;0.77;;;36.90;23.60;;;;;;4402697;32;20095;-44
2021/05/21 14:50:47;;;;;;;6.03;0.93;;;36.90;23.80;;;;;;4402872;32;20127;-44
2021/05/21 14:53:14;;;;;;;4.90;0.55;;;36.90;23.70;;;;;;4376165;32;20058;-43
2021/05/21 14:55:40;;;;;;;2.92;0.40;;;36.90;23.70;;;;;;4388736;32;20068;-44
2021/05/21 14:58:07;;;;;;;3.08;0.80;;;37.00;23.50;;;;;;4402592;32;20061;-44
2021/05/21 15:00:34;;;;;;;2.75;0.45;;;37.00;23.40;;;;;;4402303;32;20188;-43
2021/05/21 15:03:02;;;;;;;6.82;1.08;;;37.10;23.70;;;;;;4402726;32;20606;-43
2021/05/21 15:05:34;;;;;;;7.70;0.80;;;37.10;24.00;;;;;;4402261;32;20057;-45
2021/05/21 15:08:01;;;;;;;4.22;0.50;;;37.10;24.30;;;;;;4389055;32;20108;-42
2021/05/21 15:10:30;;;;;;;14.15;1.27;;;37.10;23.90;;;;;;4369834;32;20137;-43
2021/05/21 15:13:06;;;;;;;11.57;0.77;;;37.00;24.10;;;;;;4372300;32;20525;-45
2021/05/21 15:15:40;;;;;;;24.73;2.45;;;37.00;24.30;;;;;;4372637;32;20072;-44
2021/05/21 15:26:07;;;;;;;10.75;1.23;;;36.40;25.30;;;;;;4372643;32;20154;-41
2021/05/21 15:28:34;;;;;;;8.10;0.80;;;36.20;26.10;;;;;;4360310;32;20077;-42
2021/05/21 15:31:01;;;;;;;8.90;0.95;;;35.90;26.70;;;;;;4359986;32;20069;-42
2021/05/21 15:33:30;;;;;;;6.82;1.08;;;35.60;26.90;;;;;;4372458;32;20073;-42
2021/05/21 15:36:04;;;;;;;6.28;0.75;;;35.50;26.90;;;;;;4360227;32;20066;-43
2021/05/21 15:38:31;;;;;;;2.15;0.60;;;35.40;27.00;;;;;;4361167;32;20067;-42
2021/05/21 15:40:57;;;;;;;7.03;0.50;;;35.30;26.10;;;;;;4372590;32;20082;-42
2021/05/21 15:46:21;;;;;;;3.62;0.85;;;35.20;26.10;;;;;;4361980;32;20093;-42
2021/05/21 15:49:07;;;;;;;15.35;1.42;;;35.20;25.70;;;;;;4359523;32;20502;-41
2021/05/21 15:51:48;;;;;;;17.85;2.00;;;35.20;26.00;;;;;;4373281;32;20154;-42
2021/05/21 15:54:40;;;;;;;18.83;1.20;;;35.20;25.90;;;;;;4374733;32;20077;-42
2021/05/21 15:59:53;;;;;;;13.05;0.88;;;34.90;25.90;;;;;;4373194;32;20070;-41
2021/05/21 16:02:19;;;;;;;7.68;1.20;;;34.70;26.00;;;;;;4374512;32;20513;-41
2021/05/21 16:04:46;;;;;;;27.25;1.00;;;34.60;26.20;;;;;;4374229;32;20065;-43
2021/05/21 16:07:12;;;;;;;13.15;0.80;;;34.50;26.60;;;;;;4374259;32;20477;-42
2021/05/21 16:09:39;;;;;;;19.25;0.85;;;34.40;26.70;;;;;;4372863;32;20081;-40
2021/05/21 16:12:06;;;;;;;10.00;1.30;;;34.30;27.10;;;;;;4374185;32;20046;-42
2021/05/21 16:14:33;;;;;;;13.65;0.68;;;34.20;27.20;;;;;;4374465;32;20094;-41
2021/05/21 16:16:59;;;;;;;7.57;0.60;;;34.10;27.10;;;;;;4374877;32;20141;-41
2021/05/21 16:19:26;;;;;;;3.62;1.20;;;33.90;26.70;;;;;;4372861;32;20054;-41
2021/05/21 16:21:52;;;;;;;3.15;0.50;;;33.80;26.60;;;;;;4384359;32;20131;-41
2021/05/21 16:24:18;;;;;;;3.72;0.88;;;33.70;26.40;;;;;;4389201;32;20453;-40
2021/05/21 16:26:45;;;;;;;2.05;0.50;;;33.60;26.40;;;;;;4389531;32;20077;-40
2021/05/21 16:29:11;;;;;;;5.85;0.60;;;33.50;26.90;;;;;;4389054;32;20116;-41
2021/05/21 16:31:38;;;;;;;5.15;0.80;;;33.40;26.40;;;;;;4389341;32;20080;-42
2021/05/21 16:34:06;;;;;;;6.57;1.08;;;33.20;26.50;;;;;;4387731;32;20083;-41
2021/05/21 16:36:34;;;;;;;3.28;0.50;;;33.00;26.70;;;;;;4399388;32;20069;-42
2021/05/21 16:39:03;;;;;;;6.75;1.10;;;32.90;26.90;;;;;;4404382;32;20133;-41
2021/05/21 16:41:30;;;;;;;8.52;1.10;;;32.80;27.00;;;;;;4404309;32;20061;-40
2021/05/21 16:43:56;;;;;;;6.40;0.80;;;32.70;27.40;;;;;;4404066;32;20073;-41
2021/05/21 16:46:23;;;;;;;13.80;1.00;;;32.70;27.50;;;;;;4403941;32;20054;-41
2021/05/21 16:48:49;;;;;;;6.85;2.50;;;32.60;27.50;;;;;;4404736;32;20066;-41
2021/05/21 16:51:16;;;;;;;19.85;1.75;;;32.60;27.60;;;;;;4404602;32;20190;-40
2021/05/21 16:53:42;;;;;;;2.75;0.60;;;32.50;27.80;;;;;;4404765;32;20098;-40
2021/05/21 16:56:11;;;;;;;3.42;0.77;;;32.40;27.70;;;;;;4403708;32;20100;-41
2021/05/21 16:58:38;;;;;;;4.10;0.80;;;32.40;27.80;;;;;;4404175;32;20058;-42
2021/05/21 17:01:05;;;;;;;1.45;1.00;;;32.30;27.90;;;;;;4404169;32;20524;-41
2021/05/21 17:03:31;;;;;;;7.50;1.30;;;32.20;27.80;;;;;;4377322;32;20089;-40
2021/05/21 17:05:58;;;;;;;3.90;1.60;;;32.20;28.00;;;;;;4403765;32;20073;-41
2021/05/21 17:08:24;;;;;;;5.80;0.73;;;32.10;28.10;;;;;;4403486;32;20068;-40
2021/05/21 17:10:52;;;;;;;4.82;0.70;;;32.00;28.20;;;;;;4403958;32;20532;-42
2021/05/21 17:13:20;;;;;;;3.75;0.90;;;31.90;28.30;;;;;;4403707;32;20062;-41
2021/05/21 17:15:54;;;;;;;4.07;1.00;;;31.80;28.40;;;;;;4403562;32;20078;-41
2021/05/21 17:48:54;;;;;;;2.58;1.02;;;30.70;29.80;;;;;;4367243;32;20580;-41
2021/05/21 17:56:57;;;;;;;4.55;1.10;;;30.60;29.60;;;;;;4376490;32;20061;-41
2021/05/21 18:12:23;;;;;;;2.70;0.57;;;30.30;28.80;;;;;;4374729;32;20085;-40
2021/05/21 18:15:08;;;;;;;1.42;0.40;;;30.30;28.70;;;;;;4364824;32;20086;-42
2021/05/21 18:23:24;;;;;;;2.25;0.70;;;30.10;28.70;;;;;;4403144;32;20074;-41
2021/05/21 18:45:02;;;;;;;1.10;0.20;;;29.30;29.30;;;;;;4402604;32;20069;-40
2021/05/21 18:47:37;;;;;;;3.15;0.62;;;29.20;29.20;;;;;;4404239;32;20153;-41
2021/05/21 18:50:25;;;;;;;1.98;0.55;;;29.20;29.30;;;;;;4405976;32;20156;-39
2021/05/21 19:03:46;;;;;;;0.45;0.35;;;29.30;29.20;;;;;;4363670;32;20093;-40
2021/05/21 19:06:13;;;;;;;2.45;0.37;;;29.30;29.20;;;;;;4392142;32;20057;-41
2021/05/21 19:08:48;;;;;;;2.12;0.28;;;29.40;29.20;;;;;;4391959;32;20141;-41
2021/05/21 19:14:09;;;;;;;2.08;0.30;;;29.50;29.10;;;;;;4393406;32;20088;-41
2021/05/21 19:16:54;;;;;;;1.58;0.30;;;29.50;28.90;;;;;;4404991;32;20068;-40
2021/05/21 19:19:23;;;;;;;6.25;0.60;;;29.60;29.00;;;;;;4405289;32;20557;-41
2021/05/21 19:21:54;;;;;;;3.92;0.40;;;29.70;29.00;;;;;;4380743;32;20756;-40
2021/05/21 19:24:20;;;;;;;5.37;0.30;;;29.70;29.10;;;;;;4390367;32;20062;-41
2021/05/21 19:26:47;;;;;;;1.33;0.30;;;29.70;29.10;;;;;;4390457;32;20144;-40
2021/05/21 19:29:39;;;;;;;0.90;0.20;;;29.80;29.10;;;;;;4390224;32;20467;-41
2021/05/21 19:32:25;;;;;;;3.72;0.30;;;29.80;29.00;;;;;;4390557;32;20089;-41
2021/05/21 19:40:50;;;;;;;2.90;0.20;;;29.90;29.00;;;;;;4378426;32;20064;-41
2021/05/21 19:57:35;;;;;;;1.20;0.30;;;29.70;28.90;;;;;;4389669;32;20160;-40
2021/05/21 20:02:47;;;;;;;5.53;0.45;;;29.60;28.80;;;;;;4389962;32;20157;-41
2021/05/21 20:13:29;;;;;;;4.72;0.30;;;29.40;29.50;;;;;;4389985;32;20078;-41
2021/05/21 20:16:01;;;;;;;3.08;0.25;;;29.20;29.60;;;;;;4389636;32;20060;-41
2021/05/21 20:18:28;;;;;;;2.60;0.30;;;29.10;29.80;;;;;;4375783;32;20115;-40
2021/05/21 20:20:55;;;;;;;2.40;0.40;;;29.00;29.80;;;;;;4395109;32;20537;-40
2021/05/21 20:23:22;;;;;;;3.90;0.30;;;28.90;29.70;;;;;;4404497;32;20073;-40
2021/05/21 20:25:57;;;;;;;1.27;0.30;;;28.90;29.70;;;;;;4390679;32;20058;-40
2021/05/21 20:28:34;;;;;;;1.55;0.30;;;28.90;29.70;;;;;;4404320;32;20150;-41
2021/05/21 20:31:17;;;;;;;1.77;0.20;;;28.90;29.50;;;;;;4404622;32;20071;-41
2021/05/21 20:42:40;;;;;;;1.87;0.20;;;29.10;29.10;;;;;;4393941;32;20160;-41
2021/05/21 21:01:45;;;;;;;;;;;29.10;29.30;;;;;;4404450;32;20081;-41
2021/05/21 21:12:10;;;;;;;2.58;0.28;;;29.10;29.50;;;;;;4392076;32;20065;-40
2021/05/21 21:14:51;;;;;;;1.67;0.20;;;29.10;30.00;;;;;;4403796;32;20065;-40
2021/05/21 21:20:31;;;;;;;3.33;0.32;;;28.90;29.50;;;;;;4404089;32;20178;-41
2021/05/21 21:23:08;;;;;;;1.30;0.20;;;28.90;29.60;;;;;;4375045;32;20057;-40
2021/05/21 21:38:53;;;;;;;3.58;0.30;;;28.70;29.90;;;;;;4388950;32;20082;-41
2021/05/21 21:41:44;;;;;;;4.22;0.30;;;28.70;29.90;;;;;;4388264;32;20097;-39
2021/05/21 21:47:21;;;;;;;1.65;0.17;;;28.60;29.80;;;;;;4355650;32;20059;-39
2021/05/21 21:55:46;;;;;;;0.13;0.10;;;28.50;30.00;;;;;;4310972;33;20096;-40
2021/05/21 22:01:11;;;;;;;3.83;0.30;;;28.50;30.00;;;;;;4311323;33;20082;-39
2021/05/21 22:03:44;;;;;;;2.08;0.20;;;28.50;30.10;;;;;;4311455;33;20165;-41
2021/05/21 22:06:41;;;;;;;1.83;0.35;;;28.40;30.00;;;;;;4311673;33;20152;-39
2021/05/21 22:19:22;;;;;;;0.80;0.20;;;28.20;30.30;;;;;;4311422;33;20578;-39
2021/05/21 22:24:21;;;;;;;1.33;0.20;;;28.20;30.30;;;;;;4340896;33;20067;-39
2021/05/21 22:26:48;;;;;;;0.20;0.20;;;28.20;30.30;;;;;;4341136;33;20587;-40
2021/05/21 22:29:14;;;;;;;1.85;0.30;;;28.20;30.40;;;;;;4340451;33;20067;-40
2021/05/21 22:31:41;;;;;;;2.92;0.30;;;28.20;30.50;;;;;;4360389;32;20078;-40
2021/05/21 22:34:07;;;;;;;0.65;0.25;;;28.20;30.40;;;;;;4387896;32;20062;-40
2021/05/21 22:36:37;;;;;;;2.95;0.20;;;28.30;30.50;;;;;;4387508;32;20082;-39
2021/05/21 22:39:11;;;;;;;1.92;0.20;;;28.30;30.50;;;;;;4374138;32;20227;-39
2021/05/21 22:41:43;;;;;;;1.55;0.40;;;28.30;30.50;;;;;;4387722;32;20149;-40
2021/05/21 22:44:17;;;;;;;0.40;0.30;;;28.20;30.50;;;;;;4355199;32;20530;-38
2021/05/21 22:46:43;;;;;;;4.03;0.28;;;28.20;30.50;;;;;;4355394;32;20069;-39
2021/05/21 22:49:10;;;;;;;3.83;0.40;;;28.30;30.70;;;;;;4342971;32;20173;-40
2021/05/21 22:51:37;;;;;;;2.78;0.15;;;28.20;30.70;;;;;;4355465;32;20154;-39
2021/05/21 22:54:04;;;;;;;4.62;0.30;;;28.20;30.70;;;;;;4355535;32;20074;-40
2021/05/21 22:56:32;;;;;;;0.40;0.20;;;28.20;30.90;;;;;;4355560;32;20102;-39
2021/05/21 22:58:59;;;;;;;2.87;0.25;;;28.20;31.00;;;;;;4355368;32;20568;-39
2021/05/21 23:01:25;;;;;;;2.17;0.37;;;28.10;31.50;;;;;;4355745;32;20090;-39
2021/05/21 23:03:51;;;;;;;0.10;0.10;;;28.10;31.10;;;;;;4355156;32;20148;-40
2021/05/21 23:06:18;;;;;;;1.37;0.50;;;28.10;31.10;;;;;;4355452;32;20187;-40
2021/05/21 23:08:44;;;;;;;0.70;0.13;;;28.10;31.10;;;;;;4356062;32;20078;-39
2021/05/21 23:11:10;;;;;;;0.70;0.30;;;28.10;31.10;;;;;;4355783;32;20159;-40
2021/05/21 23:13:37;;;;;;;0.75;0.20;;;28.10;31.30;;;;;;4355626;32;20099;-40
2021/05/21 23:16:06;;;;;;;0.90;0.20;;;28.00;31.30;;;;;;4355388;32;20090;-40
2021/05/21 23:18:33;;;;;;;1.25;0.20;;;28.00;31.40;;;;;;4355472;32;20070;-39
2021/05/21 23:21:00;;;;;;;0.20;0.20;;;27.90;31.40;;;;;;4365442;32;20499;-39
2021/05/21 23:23:26;;;;;;;0.82;0.20;;;27.90;31.40;;;;;;4387511;32;20154;-40
2021/05/21 23:25:53;;;;;;;1.25;0.30;;;27.90;31.50;;;;;;4387640;32;20067;-40
2021/05/21 23:28:19;;;;;;;1.23;0.20;;;27.90;31.40;;;;;;4387502;32;20061;-38
2021/05/21 23:30:46;;;;;;;0.20;0.10;;;27.90;31.40;;;;;;4387515;32;20101;-38
2021/05/21 23:33:12;;;;;;;1.00;0.30;;;27.90;31.30;;;;;;4388499;32;20570;-39
2021/05/21 23:35:39;;;;;;;1.25;0.20;;;27.90;31.40;;;;;;4390090;32;20480;-40
2021/05/21 23:38:05;;;;;;;1.33;0.20;;;27.90;31.40;;;;;;4390627;32;20077;-40
2021/05/21 23:40:32;;;;;;;0.62;0.20;;;27.90;31.40;;;;;;4389989;32;20157;-41
2021/05/21 23:42:58;;;;;;;0.62;0.20;;;27.90;31.40;;;;;;4376754;32;20508;-39
2021/05/21 23:45:25;;;;;;;0.93;0.20;;;27.90;31.30;;;;;;4376582;32;20153;-39
2021/05/21 23:47:51;;;;;;;0.60;0.20;;;27.90;31.30;;;;;;4389938;32;20547;-39
2021/05/21 23:50:17;;;;;;;2.53;1.05;;;27.90;31.40;;;;;;4390383;32;20073;-40
2021/05/21 23:52:44;;;;;;;2.55;0.30;;;27.80;31.40;;;;;;4390333;32;20058;-39
2021/05/21 23:55:11;;;;;;;0.30;0.20;;;27.80;31.50;;;;;;4390198;32;20528;-40
2021/05/21 23:57:37;;;;;;;1.37;0.55;;;27.70;31.50;;;;;;4376347;32;20066;-40
